createdAt,value
2018-05-17T00:07:24.523Z,35.20
2018-05-17T00:22:53.865Z,44.23
2018-05-17T00:28:34.800Z,46.57
2018-05-17T00:34:31.960Z,44.67
2018-05-17T00:37:18.089Z,42.80
2018-05-17T00:55:45.580Z,56.50
2018-05-17T00:58:38.391Z,53.50
2018-05-17T01:01:24.726Z,45.50
2018-05-17T01:03:54.872Z,46.77
2018-05-17T01:06:49.896Z,43.87
2018-05-17T01:09:38.277Z,40.17
2018-05-17T01:15:37.214Z,44.87
2018-05-17T01:18:23.318Z,42.10
2018-05-17T01:24:19.895Z,45.07
2018-05-17T01:27:14.183Z,48.93
2018-05-17T01:32:54.889Z,50.57
2018-05-17T01:35:28.304Z,50.10
2018-05-17T01:41:25.347Z,38.97
2018-05-17T01:43:55.518Z,37.80
2018-05-17T01:49:36.085Z,36.27
2018-05-17T01:52:06.597Z,47.37
2018-05-17T01:57:47.135Z,181.30
2018-05-17T02:03:28.530Z,92.67
2018-05-17T02:09:03.309Z,78.47
2018-05-17T02:11:33.847Z,78.97
2018-05-17T02:14:03.995Z,88.47
2018-05-17T02:16:34.323Z,90.90
2018-05-17T02:19:06.332Z,74.30
2018-05-17T02:21:36.483Z,95.47
2018-05-17T02:30:33.454Z,50.77
2018-05-17T02:33:03.916Z,48.17
2018-05-17T02:35:54.727Z,33.30
2018-05-17T02:38:31.726Z,41.00
2018-05-17T02:44:11.700Z,36.23
2018-05-17T02:46:41.883Z,39.90
2018-05-17T02:49:12.169Z,35.97
2018-05-17T02:51:42.417Z,39.57
2018-05-17T02:54:29.630Z,31.63
2018-05-17T02:56:59.920Z,36.07
2018-05-17T02:59:58.335Z,37.13
2018-05-17T03:02:28.526Z,37.23
2018-05-17T03:04:59.452Z,40.40
2018-05-17T03:07:57.362Z,39.80
2018-05-17T03:10:27.643Z,41.77
2018-05-17T03:15:42.674Z,42.20
2018-05-17T03:18:18.106Z,40.97
2018-05-17T03:20:51.704Z,58.53
2018-05-17T03:26:31.596Z,49.30
2018-05-17T03:29:03.899Z,72.13
2018-05-17T03:31:35.219Z,68.57
2018-05-17T03:34:05.430Z,60.77
2018-05-17T03:37:04.820Z,238.37
2018-05-17T03:39:35.417Z,360.30
2018-05-17T03:45:17.799Z,227.30
2018-05-17T03:47:53.465Z,139.43
2018-05-17T03:50:31.639Z,128.23
2018-05-17T03:56:12.018Z,82.43
2018-05-17T03:58:43.275Z,141.27
2018-05-17T04:01:29.899Z,209.57
2018-05-17T04:04:16.880Z,350.53
2018-05-17T04:06:47.319Z,207.50
2018-05-17T04:09:17.711Z,114.53
2018-05-17T04:11:50.776Z,177.87
2018-05-17T04:14:23.623Z,179.70
2018-05-17T04:16:54.580Z,276.77
2018-05-17T04:19:24.824Z,244.47
2018-05-17T04:21:55.399Z,536.07
2018-05-17T04:24:25.625Z,750.97
2018-05-17T04:26:55.658Z,612.03
2018-05-17T04:29:25.868Z,897.73
2018-05-17T04:31:56.292Z,1017.30
2018-05-17T04:34:26.497Z,1005.33
2018-05-17T04:36:57.184Z,1157.37
2018-05-17T04:39:28.083Z,1350.50
2018-05-17T04:41:58.391Z,1214.20
2018-05-17T04:44:28.985Z,1534.17
2018-05-17T04:46:59.597Z,1786.23
2018-05-17T04:49:30.296Z,1766.97
2018-05-17T04:52:00.815Z,1788.13
2018-05-17T04:54:38.510Z,1990.70
2018-05-17T04:57:09.337Z,1999.90
2018-05-17T04:59:39.771Z,1836.03
2018-05-17T05:02:11.242Z,1999.90
2018-05-17T05:04:41.686Z,1999.90
2018-05-17T05:07:11.833Z,1973.30
2018-05-17T05:09:41.999Z,1999.90
2018-05-17T05:12:13.012Z,1999.90
2018-05-17T05:14:43.110Z,1999.90
2018-05-17T05:17:14.136Z,1999.90
2018-05-17T05:19:45.496Z,1999.90
2018-05-17T05:22:18.619Z,1999.90
2018-05-17T05:24:49.088Z,1999.90
2018-05-17T05:27:19.480Z,1999.90
2018-05-17T05:29:49.671Z,1999.90
2018-05-17T05:32:20.591Z,1999.90
2018-05-17T05:34:50.846Z,1999.90
2018-05-17T05:37:21.077Z,1641.43
2018-05-17T05:39:51.213Z,1999.90
2018-05-17T05:42:22.178Z,1877.07
2018-05-17T05:44:52.318Z,1999.90
2018-05-17T05:47:22.462Z,1999.90
2018-05-17T05:49:52.616Z,1999.90
2018-05-17T05:52:22.787Z,1999.90
2018-05-17T05:54:52.977Z,1999.90
2018-05-17T05:57:23.126Z,1999.90
2018-05-17T05:59:53.211Z,1473.97
2018-05-17T06:02:23.334Z,312.70
2018-05-17T06:04:53.414Z,115.67
2018-05-17T06:07:23.532Z,58.10
2018-05-17T06:09:54.596Z,49.50
2018-05-17T06:12:24.829Z,39.87
2018-05-17T06:14:55.046Z,39.37
2018-05-17T06:17:26.052Z,34.10
2018-05-17T06:19:56.584Z,29.07
2018-05-17T06:22:26.957Z,40.93
2018-05-17T06:24:57.237Z,34.83
2018-05-17T06:27:27.351Z,31.40
2018-05-17T06:29:58.055Z,23.70
2018-05-17T06:32:28.164Z,29.10
2018-05-17T06:34:58.285Z,26.67
2018-05-17T06:37:28.632Z,22.17
2018-05-17T06:39:58.830Z,22.90
2018-05-17T06:42:28.941Z,24.43
2018-05-17T06:44:59.220Z,26.10
2018-05-17T06:47:29.355Z,22.43
2018-05-17T06:49:59.511Z,25.10
2018-05-17T06:52:29.627Z,39.73
2018-05-17T06:54:59.847Z,129.20
2018-05-17T06:57:30.071Z,172.13
2018-05-17T07:00:00.187Z,26.97
2018-05-17T07:02:30.440Z,14.67
2018-05-17T07:05:00.558Z,11.90
2018-05-17T07:07:34.802Z,10.77
2018-05-17T07:10:06.400Z,9.43
2018-05-17T07:12:36.957Z,8.50
2018-05-17T07:15:08.329Z,6.77
2018-05-17T07:17:46.339Z,6.60
2018-05-17T07:20:16.726Z,5.70
2018-05-17T07:22:46.817Z,6.33
2018-05-17T07:25:17.048Z,8.37
2018-05-17T07:27:57.785Z,10.90
2018-05-17T07:30:28.031Z,9.00
2018-05-17T07:32:58.563Z,10.50
2018-05-17T07:35:28.714Z,9.37
2018-05-17T07:37:58.896Z,13.10
2018-05-17T07:40:30.473Z,16.13
2018-05-17T07:43:01.375Z,15.47
2018-05-17T07:45:31.481Z,14.17
2018-05-17T07:48:01.590Z,15.43
2018-05-17T07:50:31.755Z,12.10
2018-05-17T07:53:04.742Z,18.17
2018-05-17T07:55:34.945Z,23.43
2018-05-17T07:58:05.483Z,38.00
2018-05-17T08:00:36.463Z,43.90
2018-05-17T08:03:06.336Z,67.60
2018-05-17T08:05:36.438Z,129.57
2018-05-17T08:08:06.712Z,117.77
2018-05-17T08:10:38.077Z,72.50
2018-05-17T08:13:08.203Z,72.67
2018-05-17T08:15:38.322Z,125.63
2018-05-17T08:18:08.549Z,74.60
2018-05-17T08:20:39.005Z,155.53
2018-05-17T08:23:09.133Z,191.57
2018-05-17T08:25:39.017Z,343.50
2018-05-17T08:28:09.998Z,282.53
2018-05-17T08:30:40.103Z,218.07
2018-05-17T08:33:10.212Z,143.10
2018-05-17T08:35:40.767Z,93.13
2018-05-17T08:38:10.929Z,266.23
2018-05-17T08:40:41.385Z,166.23
2018-05-17T08:43:11.589Z,265.10
2018-05-17T08:45:42.094Z,216.93
2018-05-17T08:48:11.696Z,237.03
2018-05-17T08:50:42.111Z,142.40
2018-05-17T08:53:12.268Z,130.30
2018-05-17T08:55:43.228Z,51.07
2018-05-17T08:58:14.392Z,45.43
2018-05-17T09:00:44.505Z,40.50
2018-05-17T09:03:14.356Z,37.33
2018-05-17T09:05:44.586Z,40.50
2018-05-17T09:08:14.786Z,45.07
2018-05-17T09:10:44.895Z,39.63
2018-05-17T09:13:15.018Z,120.97
2018-05-17T09:15:45.164Z,113.83
2018-05-17T09:18:15.355Z,71.30
2018-05-17T09:20:45.455Z,63.07
2018-05-17T09:23:15.693Z,177.90
2018-05-17T09:25:46.387Z,110.33
2018-05-17T09:28:17.499Z,75.23
2018-05-17T09:30:47.825Z,67.30
2018-05-17T09:33:18.130Z,47.37
2018-05-17T09:35:48.477Z,40.63
2018-05-17T09:38:19.616Z,45.00
2018-05-17T09:40:50.023Z,40.57
2018-05-17T09:43:19.823Z,47.97
2018-05-17T09:45:49.927Z,40.90
2018-05-17T09:48:20.219Z,56.87
2018-05-17T09:50:50.880Z,51.07
2018-05-17T09:53:21.240Z,59.87
2018-05-17T09:55:51.920Z,47.13
2018-05-17T09:58:22.152Z,74.60
2018-05-17T10:00:52.371Z,63.27
2018-05-17T10:03:22.596Z,47.17
2018-05-17T10:05:52.796Z,47.47
2018-05-17T10:08:22.920Z,48.13
2018-05-17T10:10:53.166Z,43.27
2018-05-17T10:13:23.272Z,36.47
2018-05-17T10:15:53.363Z,40.43
2018-05-17T10:18:23.503Z,46.97
2018-05-17T10:20:53.603Z,38.03
2018-05-17T10:23:24.619Z,38.37
2018-05-17T10:25:54.730Z,39.07
2018-05-17T10:28:24.836Z,41.00
2018-05-17T10:30:54.931Z,36.33
2018-05-17T10:33:26.290Z,48.57
2018-05-17T10:35:56.427Z,44.27
2018-05-17T10:38:28.300Z,69.90
2018-05-17T10:40:59.229Z,239.03
2018-05-17T10:43:29.341Z,206.77
2018-05-17T10:45:59.439Z,51.57
2018-05-17T10:48:29.552Z,51.90
2018-05-17T10:50:59.929Z,49.87
2018-05-17T10:53:30.046Z,45.77
2018-05-17T10:56:00.213Z,41.13
2018-05-17T10:58:30.811Z,43.10
2018-05-17T11:01:01.138Z,41.83
2018-05-17T11:03:31.256Z,46.57
2018-05-17T11:06:01.878Z,44.97
2018-05-17T11:08:32.777Z,40.13
2018-05-17T11:11:02.900Z,43.97
2018-05-17T11:13:33.059Z,40.37
2018-05-17T11:16:03.356Z,46.40
2018-05-17T11:18:34.491Z,41.73
2018-05-17T11:21:04.756Z,43.80
2018-05-17T11:23:34.901Z,45.77
2018-05-17T11:26:05.048Z,44.47
2018-05-17T11:28:35.371Z,42.97
2018-05-17T11:31:05.539Z,39.53
2018-05-17T11:33:35.695Z,43.30
2018-05-17T11:36:06.035Z,40.97
2018-05-17T11:38:36.213Z,42.97
2018-05-17T11:41:06.516Z,41.67
2018-05-17T11:43:36.679Z,45.40
2018-05-17T11:46:06.812Z,50.57
2018-05-17T11:48:37.132Z,41.00
2018-05-17T11:51:07.748Z,39.10
2018-05-17T11:53:38.276Z,43.23
2018-05-17T11:56:08.472Z,39.70
2018-05-17T11:58:38.588Z,44.47
2018-05-17T12:01:08.347Z,42.87
2018-05-17T12:03:39.475Z,41.17
2018-05-17T12:06:09.819Z,47.73
2018-05-17T12:08:40.022Z,44.83
2018-05-17T12:11:10.423Z,44.93
2018-05-17T12:13:40.569Z,47.10
2018-05-17T12:16:10.673Z,40.20
2018-05-17T12:18:41.072Z,47.13
2018-05-17T12:21:11.403Z,42.63
2018-05-17T12:23:42.552Z,47.43
2018-05-17T12:26:12.698Z,48.00
2018-05-17T12:28:43.014Z,43.53
2018-05-17T12:31:13.253Z,50.93
2018-05-17T12:33:43.669Z,51.80
2018-05-17T12:36:13.762Z,44.33
2018-05-17T12:38:44.081Z,44.23
2018-05-17T12:41:14.368Z,45.33
2018-05-17T12:43:45.304Z,43.20
2018-05-17T12:46:15.423Z,42.83
2018-05-17T12:48:45.540Z,43.73
2018-05-17T12:51:15.638Z,46.63
2018-05-17T12:53:46.214Z,40.60
2018-05-17T12:56:16.525Z,42.47
2018-05-17T12:58:46.943Z,43.77
2018-05-17T13:01:17.492Z,48.53
2018-05-17T13:03:47.574Z,41.83
2018-05-17T13:06:17.698Z,42.63
2018-05-17T13:08:48.472Z,41.47
2018-05-17T13:11:18.586Z,38.83
2018-05-17T13:13:49.579Z,37.42
2018-05-17T13:16:20.994Z,37.60
2018-05-17T13:18:51.891Z,37.58
2018-05-17T13:21:22.559Z,40.75
2018-05-17T13:23:52.823Z,39.13
2018-05-17T13:26:22.972Z,40.20
2018-05-17T13:28:53.082Z,44.60
2018-05-17T13:31:24.430Z,41.90
2018-05-17T13:33:55.324Z,40.93
2018-05-17T13:36:25.493Z,38.87
2018-05-17T13:38:55.611Z,32.73
2018-05-17T13:41:25.719Z,40.93
2018-05-17T13:43:56.619Z,35.87
2018-05-17T13:46:26.932Z,35.40
2018-05-17T13:48:57.640Z,35.80
2018-05-17T13:51:27.742Z,36.97
2018-05-17T13:53:57.853Z,37.40
2018-05-17T13:56:28.220Z,36.37
2018-05-17T13:58:59.113Z,35.37
2018-05-17T14:01:30.272Z,48.00
2018-05-17T14:04:00.773Z,41.00
2018-05-17T14:06:31.149Z,39.23
2018-05-17T14:09:01.307Z,35.63
2018-05-17T14:11:31.425Z,39.10
2018-05-17T14:14:01.522Z,39.83
2018-05-17T14:16:32.958Z,41.67
2018-05-17T14:19:03.083Z,39.27
2018-05-17T14:21:33.432Z,42.10
2018-05-17T14:24:03.417Z,40.57
2018-05-17T14:26:33.519Z,40.17
2018-05-17T14:29:04.888Z,41.27
2018-05-17T14:31:35.201Z,39.80
2018-05-17T14:34:06.135Z,35.43
2018-05-17T14:36:36.488Z,34.07
2018-05-17T14:39:06.365Z,38.70
2018-05-17T14:41:36.477Z,38.77
2018-05-17T14:44:06.800Z,34.13
2018-05-17T14:46:37.154Z,38.03
2018-05-17T14:49:07.276Z,41.10
2018-05-17T14:51:37.569Z,32.20
2018-05-17T14:54:07.370Z,37.20
2018-05-17T14:56:37.667Z,36.77
2018-05-17T14:59:07.814Z,33.17
2018-05-17T15:01:38.010Z,31.77
2018-05-17T15:04:08.133Z,41.30
2018-05-17T15:06:39.022Z,36.00
2018-05-17T15:09:09.143Z,32.00
2018-05-17T15:11:39.282Z,30.20
2018-05-17T15:14:10.168Z,30.87
2018-05-17T15:16:40.298Z,36.87
2018-05-17T15:19:10.440Z,28.97
2018-05-17T15:21:41.507Z,36.10
2018-05-17T15:24:11.865Z,32.50
2018-05-17T15:26:42.729Z,36.03
2018-05-17T15:29:13.106Z,29.80
2018-05-17T15:31:43.226Z,36.50
2018-05-17T15:34:14.165Z,30.23
2018-05-17T15:36:44.451Z,27.80
2018-05-17T15:39:15.414Z,34.33
2018-05-17T15:41:46.427Z,30.33
2018-05-17T15:44:16.630Z,30.63
2018-05-17T15:46:47.485Z,35.77
2018-05-17T15:49:18.348Z,25.53
2018-05-17T15:51:49.241Z,25.50
2018-05-17T15:54:19.572Z,23.87
2018-05-17T15:56:49.728Z,20.57
2018-05-17T15:59:19.876Z,30.23
2018-05-17T16:01:50.571Z,20.37
2018-05-17T16:04:20.693Z,23.23
2018-05-17T16:06:51.585Z,26.50
2018-05-17T16:09:21.799Z,34.30
2018-05-17T16:11:52.082Z,20.70
2018-05-17T16:14:22.476Z,22.33
2018-05-17T16:16:53.366Z,26.30
2018-05-17T16:19:24.180Z,22.83
2018-05-17T16:21:54.597Z,24.73
2018-05-17T16:24:26.197Z,28.07
2018-05-17T16:26:57.568Z,22.70
2018-05-17T16:29:28.261Z,20.97
2018-05-17T16:31:59.744Z,22.53
2018-05-17T16:34:29.843Z,29.67
2018-05-17T16:37:02.043Z,22.93
2018-05-17T16:39:33.084Z,21.20
2018-05-17T16:42:03.439Z,23.47
2018-05-17T16:44:34.272Z,26.50
2018-05-17T16:47:04.838Z,24.73
2018-05-17T16:49:34.949Z,27.20
2018-05-17T16:52:06.030Z,29.57
2018-05-17T16:54:36.851Z,33.53
2018-05-17T16:57:09.685Z,28.30
2018-05-17T16:59:39.557Z,28.93
2018-05-17T17:02:09.941Z,31.57
2018-05-17T17:04:40.495Z,29.97
2018-05-17T17:07:11.349Z,28.53
2018-05-17T17:09:41.551Z,33.73
2018-05-17T17:12:12.477Z,30.83
2018-05-17T17:14:42.463Z,33.03
2018-05-17T17:17:13.374Z,29.97
2018-05-17T17:19:43.637Z,31.30
2018-05-17T17:22:13.804Z,29.63
2018-05-17T17:24:44.040Z,38.87
2018-05-17T17:27:15.792Z,31.83
2018-05-17T17:29:46.139Z,33.03
2018-05-17T17:32:16.315Z,32.90
2018-05-17T17:34:46.458Z,33.80
2018-05-17T17:37:16.605Z,31.70
2018-05-17T17:39:46.832Z,36.10
2018-05-17T17:42:17.043Z,36.57
2018-05-17T17:44:48.233Z,34.73
2018-05-17T17:47:18.408Z,37.23
2018-05-17T17:49:48.502Z,27.47
2018-05-17T17:52:18.928Z,34.80
2018-05-17T17:54:49.315Z,35.97
2018-05-17T17:57:19.609Z,36.10
2018-05-17T17:59:49.733Z,29.20
2018-05-17T18:02:21.593Z,44.43
2018-05-17T18:04:51.719Z,38.57
2018-05-17T18:07:21.841Z,32.67
2018-05-17T18:09:52.201Z,33.10
2018-05-17T18:12:22.415Z,34.00
2018-05-17T18:14:52.542Z,34.80
2018-05-17T18:17:22.702Z,34.53
2018-05-17T18:19:55.464Z,30.87
2018-05-17T18:22:25.679Z,36.30
2018-05-17T18:24:55.820Z,33.13
2018-05-17T18:27:26.417Z,30.97
2018-05-17T18:29:56.569Z,38.17
2018-05-17T18:32:26.998Z,31.30
2018-05-17T18:34:56.866Z,33.57
2018-05-17T18:37:27.032Z,38.63
2018-05-17T18:39:57.250Z,36.07
2018-05-17T18:42:28.494Z,34.80
2018-05-17T18:44:59.068Z,35.20
2018-05-17T18:47:29.123Z,32.00
2018-05-17T18:49:59.335Z,38.47
2018-05-17T18:52:29.533Z,43.47
2018-05-17T18:54:59.766Z,37.87
2018-05-17T18:57:29.913Z,39.33
2018-05-17T19:00:00.149Z,50.93
2018-05-17T19:02:30.518Z,44.83
2018-05-17T19:05:00.753Z,52.23
2018-05-17T19:07:31.668Z,49.37
2018-05-17T19:10:01.884Z,60.43
2018-05-17T19:12:32.089Z,50.10
2018-05-17T19:15:03.091Z,57.90
2018-05-17T19:17:33.293Z,63.93
2018-05-17T19:20:03.520Z,67.37
2018-05-17T19:22:33.326Z,61.70
2018-05-17T19:25:03.548Z,62.83
2018-05-17T19:27:34.658Z,76.13
2018-05-17T19:30:04.233Z,71.50
2018-05-17T19:32:34.342Z,73.13
2018-05-17T19:35:04.546Z,80.57
2018-05-17T19:37:34.742Z,84.10
2018-05-17T19:40:04.500Z,68.23
2018-05-17T19:42:34.674Z,85.53
2018-05-17T19:45:04.932Z,106.07
2018-05-17T19:47:35.222Z,84.80
2018-05-17T19:50:04.453Z,91.77
2018-05-17T19:52:34.934Z,130.13
2018-05-17T19:55:04.770Z,70.30
2018-05-17T19:57:35.925Z,108.00
2018-05-17T20:00:05.438Z,105.10
2018-05-17T20:02:35.624Z,92.97
2018-05-17T20:05:05.630Z,103.67
2018-05-17T20:07:35.841Z,154.83
2018-05-17T20:10:05.661Z,120.13
2018-05-17T20:12:35.858Z,117.27
2018-05-17T20:15:05.740Z,109.40
2018-05-17T20:17:36.082Z,136.70
2018-05-17T20:20:05.491Z,116.07
2018-05-17T20:22:35.706Z,117.23
2018-05-17T20:25:06.190Z,107.47
2018-05-17T20:27:36.428Z,118.90
2018-05-17T20:30:05.952Z,106.90
2018-05-17T20:32:36.208Z,86.77
2018-05-17T20:35:06.589Z,108.00
2018-05-17T20:37:36.935Z,114.97
2018-05-17T20:40:06.990Z,82.07
2018-05-17T20:42:37.258Z,99.77
2018-05-17T20:45:07.387Z,111.57
2018-05-17T20:47:38.036Z,95.27
2018-05-17T20:50:08.953Z,102.47
2018-05-17T20:52:41.241Z,97.37
2018-05-17T20:55:11.523Z,110.83
2018-05-17T20:57:41.882Z,93.23
2018-05-17T21:00:11.688Z,98.23
2018-05-17T21:02:42.132Z,96.07
2018-05-17T21:05:12.412Z,106.50
2018-05-17T21:07:43.363Z,106.83
2018-05-17T21:10:14.855Z,108.87
2018-05-17T21:12:46.428Z,123.33
2018-05-17T21:15:17.204Z,101.03
2018-05-17T21:17:47.485Z,97.53
2018-05-17T21:20:23.412Z,101.80
2018-05-17T21:22:53.679Z,108.07
2018-05-17T21:25:25.808Z,117.30
2018-05-17T21:27:58.386Z,113.90
2018-05-17T21:30:29.547Z,130.40
2018-05-17T21:33:01.321Z,127.17
2018-05-17T21:35:32.748Z,140.17
2018-05-17T21:38:04.078Z,121.50
2018-05-17T21:40:37.889Z,112.30
2018-05-17T21:43:12.583Z,120.83
2018-05-17T21:45:49.642Z,97.10
2018-05-17T21:48:26.284Z,107.73
2018-05-17T21:51:03.050Z,90.50
2018-05-17T21:53:40.035Z,100.07
2018-05-17T21:56:11.208Z,84.63
2018-05-17T21:58:45.091Z,68.77
2018-05-17T22:01:20.047Z,68.00
2018-05-17T22:03:53.507Z,67.07
2018-05-17T22:06:28.220Z,45.17
2018-05-17T22:09:00.958Z,49.50
2018-05-17T22:11:36.506Z,43.27
2018-05-17T22:14:12.471Z,38.67
2018-05-17T22:16:45.884Z,44.77
2018-05-17T22:19:20.334Z,47.37
2018-05-17T22:21:51.324Z,36.07
2018-05-17T22:24:25.466Z,45.67
2018-05-17T22:26:55.684Z,41.00
2018-05-17T22:29:25.831Z,47.23
2018-05-17T22:31:56.040Z,38.30
2018-05-17T22:34:27.573Z,40.40
2018-05-17T22:36:59.694Z,39.27
2018-05-17T22:39:32.521Z,40.47
2018-05-17T22:42:03.207Z,34.67
2018-05-17T22:44:35.301Z,40.03
2018-05-17T22:47:05.995Z,48.87
2018-05-17T22:49:36.201Z,38.67
2018-05-17T22:52:06.369Z,39.63
2018-05-17T22:54:40.664Z,42.70
2018-05-17T22:57:15.761Z,38.30
2018-05-17T22:59:46.330Z,46.77
2018-05-17T23:02:17.208Z,36.43
2018-05-17T23:04:49.050Z,34.10
2018-05-17T23:07:23.322Z,32.63
2018-05-17T23:09:55.812Z,42.70
2018-05-17T23:12:26.164Z,36.80
2018-05-17T23:14:59.455Z,31.57
2018-05-17T23:17:30.602Z,32.07
2018-05-17T23:20:05.963Z,41.60
2018-05-17T23:22:43.886Z,32.57
2018-05-17T23:25:14.292Z,37.30
2018-05-17T23:27:47.121Z,38.73
2018-05-17T23:30:20.417Z,42.70
2018-05-17T23:32:56.419Z,34.70
2018-05-17T23:35:31.205Z,34.07
2018-05-17T23:38:04.367Z,34.67
2018-05-17T23:43:59.125Z,31.70
2018-05-17T23:46:36.069Z,27.80
2018-05-17T23:49:07.072Z,30.47
2018-05-17T23:51:44.757Z,29.23
2018-05-17T23:54:20.315Z,26.50
2018-05-17T23:56:58.164Z,27.07
2018-05-17T23:59:34.351Z,25.87
